Time;durP1;ratioP1;P1;durP2;ratioP2;P2;SDS_P1;SDS_P2;PMS_P1;PMS_P2;Temp;Humidity;BMP_temperature;BMP_pressure;BME280_temperature;BME280_humidity;BME280_pressure;Samples;Min_cycle;Max_cycle;Signal;HPM_P1;HPM_P2
2022/04/26 03:37:46;;;;;;;21.45;9.38;;;15.30;79.40;;;;;;1802830;79;21092;-64
2022/04/26 03:40:15;;;;;;;17.05;8.63;;;15.30;79.30;;;;;;1777877;81;21104;-65
2022/04/26 03:42:44;;;;;;;16.65;8.20;;;15.40;79.40;;;;;;1777956;81;21069;-65
2022/04/26 03:45:14;;;;;;;13.32;7.22;;;15.50;79.50;;;;;;1777962;81;21151;-65
2022/04/26 03:47:43;;;;;;;17.20;8.25;;;15.50;79.30;;;;;;1777850;81;21065;-65
2022/04/26 03:50:13;;;;;;;15.18;8.35;;;15.60;79.30;;;;;;1777836;81;21132;-64
2022/04/26 03:52:42;;;;;;;12.03;7.08;;;15.60;79.20;;;;;;1777936;79;21127;-65
2022/04/26 03:55:11;;;;;;;13.70;7.10;;;15.70;79.00;;;;;;1777906;79;21037;-64
2022/04/26 03:57:41;;;;;;;12.90;7.12;;;15.70;78.90;;;;;;1802775;79;21056;-65
2022/04/26 04:00:22;;;;;;;17.37;7.30;;;15.70;79.00;;;;;;1764574;81;21079;-65
2022/04/26 04:02:50;;;;;;;19.07;7.80;;;15.70;79.00;;;;;;1867095;76;21086;-65
2022/04/26 04:05:20;;;;;;;18.65;8.83;;;15.90;79.00;;;;;;1867170;77;21031;-64
2022/04/26 04:07:49;;;;;;;14.13;7.62;;;15.90;78.90;;;;;;1867231;77;21027;-65
2022/04/26 04:10:19;;;;;;;12.98;8.38;;;16.00;78.90;;;;;;1867287;77;21529;-65
2022/04/26 04:12:48;;;;;;;16.55;8.55;;;16.00;78.80;;;;;;1867122;76;21039;-65
2022/04/26 04:15:19;;;;;;;22.22;8.60;;;16.00;78.90;;;;;;1867186;77;21035;-64
2022/04/26 04:17:48;;;;;;;20.97;8.03;;;16.00;79.20;;;;;;1867204;77;21121;-64
2022/04/26 04:20:17;;;;;;;17.75;8.50;;;16.00;79.30;;;;;;1867199;76;21039;-64
2022/04/26 04:22:53;;;;;;;23.75;8.83;;;16.10;79.20;;;;;;1867131;77;21128;-64
2022/04/26 04:25:21;;;;;;;71.47;13.58;;;16.20;79.30;;;;;;1866909;76;21023;-64
2022/04/26 04:27:50;;;;;;;21.23;9.45;;;16.30;79.30;;;;;;1867075;77;21043;-65
2022/04/26 04:30:20;;;;;;;13.03;7.83;;;16.30;79.20;;;;;;1867181;77;21055;-65
2022/04/26 04:32:50;;;;;;;24.07;8.38;;;16.40;79.30;;;;;;1867097;77;21042;-64
2022/04/26 04:35:19;;;;;;;20.45;7.75;;;16.50;79.40;;;;;;1867047;77;21050;-65
2022/04/26 04:37:49;;;;;;;37.73;8.55;;;16.60;79.20;;;;;;1867113;77;21121;-65
2022/04/26 04:40:18;;;;;;;20.70;8.30;;;16.70;79.10;;;;;;1867114;77;21125;-65
2022/04/26 04:42:48;;;;;;;28.83;8.60;;;16.80;79.20;;;;;;1867101;76;21031;-65
2022/04/26 04:45:17;;;;;;;20.25;8.40;;;16.90;79.10;;;;;;1867170;75;21043;-66
2022/04/26 04:47:46;;;;;;;22.75;9.45;;;17.00;79.10;;;;;;1867094;77;21035;-65
2022/04/26 04:50:16;;;;;;;24.27;10.82;;;17.20;79.20;;;;;;1867208;75;21015;-65
2022/04/26 04:52:45;;;;;;;56.30;14.00;;;17.30;79.00;;;;;;1867152;76;21124;-65
2022/04/26 04:55:15;;;;;;;16.50;9.35;;;17.40;79.00;;;;;;1867054;77;21058;-65
2022/04/26 04:57:44;;;;;;;20.65;9.08;;;17.60;79.10;;;;;;1867076;76;21078;-65
2022/04/26 05:00:14;;;;;;;17.98;9.68;;;17.70;78.90;;;;;;1905940;75;21074;-65
2022/04/26 05:02:44;;;;;;;14.93;9.68;;;17.80;78.90;;;;;;1901757;75;21109;-65
2022/04/26 05:05:13;;;;;;;26.00;9.33;;;17.90;78.60;;;;;;1857988;77;21123;-65
2022/04/26 05:07:42;;;;;;;19.73;9.03;;;18.00;78.50;;;;;;1857947;77;21128;-65
2022/04/26 05:10:12;;;;;;;63.00;13.75;;;18.10;78.30;;;;;;1858116;77;21103;-65
2022/04/26 05:12:41;;;;;;;76.20;30.12;;;18.20;78.10;;;;;;1899938;75;21011;-65
2022/04/26 05:15:11;;;;;;;63.73;18.30;;;18.30;77.90;;;;;;1858028;77;21138;-65
2022/04/26 05:17:40;;;;;;;21.48;11.93;;;18.30;77.80;;;;;;1858038;76;21020;-65
2022/04/26 05:20:10;;;;;;;39.08;14.20;;;18.40;77.70;;;;;;1858182;77;21106;-65
2022/04/26 05:25:13;;;;;;;73.78;21.60;;;18.40;77.60;;;;;;1857559;76;21020;-65
2022/04/26 05:27:42;;;;;;;22.13;12.18;;;18.40;77.70;;;;;;1858148;77;21020;-65
2022/04/26 05:30:12;;;;;;;19.87;11.55;;;18.40;77.50;;;;;;1858077;76;21048;-65
2022/04/26 05:32:41;;;;;;;29.63;14.10;;;18.50;77.40;;;;;;1858175;76;21048;-66
2022/04/26 05:35:11;;;;;;;40.48;17.92;;;18.60;77.40;;;;;;1858062;77;21051;-65
2022/04/26 05:37:42;;;;;;;28.77;11.25;;;18.70;77.10;;;;;;1857937;76;21044;-65
2022/04/26 05:40:12;;;;;;;29.12;12.43;;;18.80;77.00;;;;;;1858164;76;21203;-65
2022/04/26 05:42:41;;;;;;;33.53;13.20;;;18.90;76.90;;;;;;1858170;76;21070;-65
2022/04/26 05:45:11;;;;;;;46.35;13.85;;;19.00;76.80;;;;;;1858155;77;21059;-65
2022/04/26 05:47:46;;;;;;;43.78;16.30;;;19.10;76.70;;;;;;1858105;76;21138;-65
2022/04/26 05:50:16;;;;;;;50.75;15.60;;;19.20;77.10;;;;;;1858096;76;21083;-65
2022/04/26 05:52:46;;;;;;;30.65;13.53;;;19.30;76.50;;;;;;1858057;76;21060;-65
2022/04/26 05:55:16;;;;;;;33.45;14.90;;;19.40;76.30;;;;;;1857998;76;21075;-65
2022/04/26 05:57:45;;;;;;;36.08;15.50;;;19.50;76.10;;;;;;1858027;76;21079;-65
2022/04/26 06:00:16;;;;;;;35.23;12.80;;;19.60;76.10;;;;;;1858106;76;21173;-65
2022/04/26 06:02:45;;;;;;;29.15;12.50;;;19.70;76.00;;;;;;1861437;76;21201;-65
2022/04/26 06:05:15;;;;;;;33.92;12.58;;;19.80;75.60;;;;;;1865904;77;21108;-65
2022/04/26 06:07:45;;;;;;;26.25;11.03;;;19.90;75.30;;;;;;1865855;77;21083;-65
2022/04/26 06:10:14;;;;;;;26.82;11.48;;;19.90;75.10;;;;;;1865904;77;21114;-65
2022/04/26 06:12:44;;;;;;;27.45;11.10;;;20.00;75.00;;;;;;1865816;77;21056;-65
2022/04/26 06:15:17;;;;;;;29.07;10.80;;;20.10;75.00;;;;;;1865779;77;21107;-65
2022/04/26 06:17:45;;;;;;;35.75;11.55;;;20.20;74.70;;;;;;1865739;77;21095;-65
2022/04/26 06:23:05;;;;;;;34.23;12.50;;;20.30;73.80;;;;;;1833247;78;21054;-64
2022/04/26 06:25:36;;;;;;;30.43;11.45;;;20.40;73.60;;;;;;1833214;78;21124;-64
2022/04/26 06:28:06;;;;;;;27.17;10.05;;;20.50;73.30;;;;;;1833262;78;21034;-64
2022/04/26 06:30:38;;;;;;;28.17;10.90;;;20.60;71.20;;;;;;1833140;78;21112;-64
2022/04/26 06:33:08;;;;;;;36.80;8.90;;;20.70;70.50;;;;;;1833250;78;21046;-64
2022/04/26 06:35:37;;;;;;;24.63;9.30;;;20.70;70.70;;;;;;1833243;78;21022;-64
2022/04/26 06:38:08;;;;;;;30.75;10.08;;;20.80;70.40;;;;;;1833139;78;21601;-64
2022/04/26 06:40:37;;;;;;;29.80;10.45;;;20.90;70.60;;;;;;1833202;78;21082;-65
2022/04/26 06:43:07;;;;;;;23.15;9.30;;;21.00;69.70;;;;;;1833117;78;21046;-65
2022/04/26 06:45:36;;;;;;;22.58;8.28;;;21.10;69.60;;;;;;1833083;78;21046;-65
2022/04/26 06:48:10;;;;;;;24.45;7.30;;;21.20;68.40;;;;;;1833246;78;21019;-65
2022/04/26 06:50:39;;;;;;;25.27;8.50;;;21.20;68.40;;;;;;1833100;78;21046;-65
2022/04/26 06:53:09;;;;;;;27.55;9.08;;;21.30;67.60;;;;;;1833210;78;21638;-65
2022/04/26 06:55:38;;;;;;;22.40;9.08;;;21.30;67.70;;;;;;1833181;78;21042;-65
2022/04/26 06:58:07;;;;;;;28.15;9.48;;;21.40;67.80;;;;;;1833081;78;21050;-65
2022/04/26 07:00:37;;;;;;;28.25;10.45;;;21.40;67.40;;;;;;1833152;78;21046;-65
2022/04/26 07:03:07;;;;;;;22.40;8.33;;;21.40;66.70;;;;;;1833235;78;21050;-65
2022/04/26 07:05:36;;;;;;;26.70;10.95;;;21.50;66.30;;;;;;1833040;78;21113;-65
2022/04/26 07:08:06;;;;;;;29.10;8.53;;;21.60;66.10;;;;;;1833226;78;21120;-65
2022/04/26 07:10:35;;;;;;;22.93;10.75;;;21.70;65.90;;;;;;1833151;78;21108;-65
2022/04/26 07:13:04;;;;;;;39.63;13.20;;;21.70;66.10;;;;;;1833203;78;21023;-65
2022/04/26 07:15:34;;;;;;;39.73;11.90;;;21.80;65.60;;;;;;1833155;78;21159;-65
2022/04/26 07:18:03;;;;;;;33.78;12.13;;;21.90;65.70;;;;;;1833257;78;21108;-65
2022/04/26 07:20:32;;;;;;;27.50;11.15;;;22.00;65.30;;;;;;1833172;78;21062;-65
2022/04/26 07:23:01;;;;;;;35.33;12.75;;;22.20;64.40;;;;;;1866974;75;21120;-65
2022/04/26 07:25:31;;;;;;;28.32;12.60;;;22.30;64.00;;;;;;1878006;76;21112;-65
2022/04/26 07:28:00;;;;;;;32.05;12.73;;;22.30;64.00;;;;;;1878021;75;21018;-65
2022/04/26 07:30:34;;;;;;;25.00;9.98;;;22.50;63.70;;;;;;1877934;76;21049;-67
2022/04/26 07:35:47;;;;;;;27.93;11.65;;;22.60;62.40;;;;;;1877412;76;21034;-67
2022/04/26 07:38:16;;;;;;;30.88;10.70;;;22.60;62.60;;;;;;1878244;75;21565;-69
2022/04/26 07:40:46;;;;;;;24.55;10.15;;;22.70;62.00;;;;;;1884849;75;21099;-68
2022/04/26 07:43:15;;;;;;;27.48;9.90;;;22.70;62.10;;;;;;1885147;75;21017;-66
2022/04/26 07:45:45;;;;;;;25.08;9.05;;;22.80;61.80;;;;;;1887597;75;21527;-66
2022/04/26 07:48:35;;;;;;;16.02;7.78;;;22.80;61.40;;;;;;1887907;75;21282;-69
2022/04/26 07:51:04;;;;;;;23.25;9.43;;;22.90;61.30;;;;;;1864049;76;21024;-72
2022/04/26 07:53:33;;;;;;;23.92;8.05;;;23.00;60.80;;;;;;1861862;76;21033;-66
2022/04/26 07:56:02;;;;;;;23.30;7.92;;;23.00;60.40;;;;;;1848096;76;21069;-66
2022/04/26 07:58:33;;;;;;;21.33;9.70;;;23.10;60.90;;;;;;1855251;76;21086;-74
2022/04/26 08:01:04;;;;;;;10.93;5.45;;;23.20;60.20;;;;;;1850494;76;21147;-69
2022/04/26 08:03:33;;;;;;;13.45;5.58;;;23.20;59.50;;;;;;1845766;77;21100;-66
2022/04/26 08:06:23;;;;;;;7.47;4.97;;;23.30;59.10;;;;;;1850812;76;21109;-73
2022/04/26 08:11:36;;;;;;;15.55;5.25;;;23.40;59.00;;;;;;1855479;76;21075;-68
2022/04/26 08:14:14;;;;;;;12.68;5.22;;;23.50;59.30;;;;;;1854965;75;21071;-69
2022/04/26 08:16:54;;;;;;;11.25;4.05;;;23.60;59.30;;;;;;1853697;75;21138;-65
2022/04/26 08:19:38;;;;;;;14.73;3.98;;;23.60;59.30;;;;;;1853653;75;21105;-66
2022/04/26 08:22:19;;;;;;;16.15;6.53;;;23.80;59.10;;;;;;1822477;77;21150;-66
2022/04/26 08:27:48;;;;;;;22.80;5.92;;;23.90;58.60;;;;;;1840080;77;21200;-73
2022/04/26 08:30:17;;;;;;;16.50;5.28;;;23.90;57.80;;;;;;1822471;78;21040;-71
2022/04/26 08:32:48;;;;;;;20.88;5.35;;;24.00;57.10;;;;;;1830396;77;21075;-68
2022/04/26 08:35:20;;;;;;;11.33;4.35;;;24.10;57.60;;;;;;1885848;75;21077;-70
2022/04/26 08:37:50;;;;;;;10.78;4.08;;;24.20;57.40;;;;;;1882358;76;21042;-68
2022/04/26 08:40:19;;;;;;;13.40;5.15;;;24.30;57.10;;;;;;1881424;75;21029;-67
2022/04/26 08:42:54;;;;;;;13.30;6.50;;;24.30;56.60;;;;;;1881445;76;21009;-75
2022/04/26 08:45:21;;;;;;;7.45;3.98;;;24.50;55.50;;;;;;1880505;76;21362;-68
2022/04/26 08:53:26;;;;;;;11.20;3.52;;;24.80;55.40;;;;;;1881471;75;21105;-71
2022/04/26 08:55:57;;;;;;;8.50;4.03;;;24.90;54.50;;;;;;1881520;75;21077;-76
2022/04/26 08:58:27;;;;;;;20.90;5.08;;;24.90;54.20;;;;;;1881892;75;21081;-67
2022/04/26 09:01:15;;;;;;;12.98;4.05;;;24.90;53.60;;;;;;1881578;75;21029;-63
2022/04/26 09:04:02;;;;;;;9.23;4.08;;;25.00;54.40;;;;;;1881669;75;21029;-68
2022/04/26 09:06:39;;;;;;;8.53;4.37;;;25.00;54.20;;;;;;1881565;75;21069;-67
2022/04/26 09:09:25;;;;;;;8.98;4.08;;;25.00;53.50;;;;;;1881775;75;21041;-71
2022/04/26 09:11:52;;;;;;;15.15;6.35;;;25.10;54.00;;;;;;1885755;75;21136;-65
2022/04/26 09:14:36;;;;;;;9.48;5.40;;;25.10;53.70;;;;;;1887986;76;21097;-73
2022/04/26 09:17:16;;;;;;;13.58;4.55;;;25.20;53.80;;;;;;1888249;76;21456;-74
2022/04/26 09:19:46;;;;;;;13.22;4.60;;;25.20;53.90;;;;;;1888268;75;21025;-70
2022/04/26 09:22:25;;;;;;;29.45;5.05;;;25.30;53.80;;;;;;1888206;75;21096;-73
2022/04/26 09:25:07;;;;;;;14.55;4.60;;;25.30;52.70;;;;;;1888006;75;21433;-73
2022/04/26 09:27:38;;;;;;;60.28;9.20;;;25.40;53.20;;;;;;1888404;75;21165;-69
2022/04/26 09:30:13;;;;;;;7.47;3.62;;;25.40;51.60;;;;;;1888043;76;21066;-71
2022/04/26 09:32:49;;;;;;;13.25;5.05;;;25.40;50.70;;;;;;1888284;75;21017;-74
2022/04/26 09:35:29;;;;;;;18.27;4.40;;;25.40;51.10;;;;;;1888206;75;21146;-74
2022/04/26 09:40:49;;;;;;;13.85;4.28;;;25.50;50.80;;;;;;1856137;76;21136;-68
2022/04/26 09:43:19;;;;;;;17.27;4.62;;;25.50;50.30;;;;;;1856156;76;21035;-74
2022/04/26 09:45:56;;;;;;;15.18;4.45;;;25.50;50.20;;;;;;1856189;76;21129;-70
2022/04/26 09:48:30;;;;;;;18.37;5.10;;;25.60;49.40;;;;;;1856034;76;21046;-69
2022/04/26 09:51:00;;;;;;;8.95;3.95;;;25.70;50.60;;;;;;1856221;76;21038;-69
2022/04/26 09:53:37;;;;;;;12.45;4.22;;;25.80;50.00;;;;;;1856067;76;21090;-67
2022/04/26 09:56:05;;;;;;;14.20;4.15;;;25.80;49.30;;;;;;1855824;76;21086;-70
2022/04/26 09:58:35;;;;;;;15.65;4.47;;;25.90;48.80;;;;;;1856180;76;21159;-72
2022/04/26 10:01:04;;;;;;;13.65;4.75;;;25.90;49.10;;;;;;1856042;77;21203;-69
2022/04/26 10:03:38;;;;;;;24.87;7.05;;;26.00;49.70;;;;;;1790408;79;21115;-72
2022/04/26 10:06:10;;;;;;;14.85;5.22;;;26.00;49.00;;;;;;1847440;78;21094;-72
2022/04/26 10:08:40;;;;;;;21.90;6.20;;;26.10;48.70;;;;;;1847512;76;21098;-74
2022/04/26 10:11:09;;;;;;;14.40;4.65;;;26.10;48.90;;;;;;1847498;76;21172;-72
2022/04/26 10:13:40;;;;;;;17.67;5.20;;;26.20;49.30;;;;;;1847532;76;21023;-72
2022/04/26 10:16:15;;;;;;;13.70;4.87;;;26.30;48.80;;;;;;1847511;77;21035;-77
2022/04/26 10:18:47;;;;;;;13.70;4.55;;;26.30;49.30;;;;;;1847482;77;21109;-73
2022/04/26 10:21:25;;;;;;;15.58;5.97;;;26.30;48.90;;;;;;1847336;77;21039;-75
2022/04/26 10:24:06;;;;;;;24.65;5.62;;;26.30;48.50;;;;;;1845440;76;21164;-72
2022/04/26 10:26:33;;;;;;;14.05;4.85;;;26.40;48.10;;;;;;1846218;77;21039;-67
2022/04/26 10:29:08;;;;;;;20.65;5.00;;;26.30;48.90;;;;;;1847406;76;21035;-68
2022/04/26 10:31:40;;;;;;;14.60;4.80;;;26.30;49.70;;;;;;1847744;76;21117;-66
2022/04/26 10:34:24;;;;;;;22.93;6.33;;;26.30;49.80;;;;;;1847921;77;21023;-64
2022/04/26 10:37:02;;;;;;;10.77;4.67;;;26.30;49.80;;;;;;1848490;76;21019;-65
2022/04/26 10:39:48;;;;;;;13.15;5.00;;;26.40;49.80;;;;;;1850753;77;21108;-65
2022/04/26 10:42:19;;;;;;;14.03;5.00;;;26.40;50.20;;;;;;1856640;76;21460;-65
2022/04/26 10:44:50;;;;;;;16.73;4.80;;;26.40;50.60;;;;;;1856506;76;21076;-64
2022/04/26 10:47:23;;;;;;;13.38;4.83;;;26.40;50.60;;;;;;1856509;76;21021;-65
2022/04/26 10:49:53;;;;;;;14.63;4.83;;;26.40;50.60;;;;;;1856420;76;21048;-64
2022/04/26 10:52:24;;;;;;;15.08;4.62;;;26.50;50.60;;;;;;1856535;76;21045;-65
2022/04/26 10:54:58;;;;;;;12.50;5.20;;;26.50;50.20;;;;;;1856543;76;21005;-65
2022/04/26 10:57:29;;;;;;;11.55;5.15;;;26.60;49.70;;;;;;1856568;76;21069;-65
2022/04/26 11:00:00;;;;;;;16.77;5.78;;;26.60;49.30;;;;;;1856514;76;21103;-65
2022/04/26 11:02:39;;;;;;;9.38;4.53;;;26.50;50.00;;;;;;1856666;77;21527;-65
2022/04/26 11:05:13;;;;;;;19.30;6.05;;;26.50;50.40;;;;;;1856513;76;21126;-65
2022/04/26 11:07:45;;;;;;;21.07;6.05;;;26.50;50.60;;;;;;1856619;76;21029;-65
2022/04/26 11:10:16;;;;;;;11.78;5.70;;;26.50;51.20;;;;;;1856367;76;21115;-65
2022/04/26 11:12:45;;;;;;;10.65;5.78;;;26.50;51.50;;;;;;1856409;77;21041;-65
2022/04/26 11:15:22;;;;;;;9.73;5.33;;;26.50;52.10;;;;;;1856469;76;21103;-65
2022/04/26 11:17:52;;;;;;;10.30;5.30;;;26.50;51.80;;;;;;1856405;77;21045;-65
2022/04/26 11:20:24;;;;;;;28.77;7.65;;;26.50;52.10;;;;;;1856446;77;21045;-65
2022/04/26 11:22:58;;;;;;;15.98;6.37;;;26.40;52.50;;;;;;1856407;77;21107;-65
2022/04/26 11:28:17;;;;;;;15.53;6.75;;;26.50;52.20;;;;;;1856552;76;21111;-66
2022/04/26 11:30:52;;;;;;;21.23;8.33;;;26.50;52.20;;;;;;1856465;77;21107;-66
2022/04/26 11:33:23;;;;;;;18.35;6.83;;;26.50;53.10;;;;;;1856436;76;21135;-65
2022/04/26 11:35:57;;;;;;;17.85;7.85;;;26.40;53.30;;;;;;1856369;76;21103;-65
2022/04/26 11:38:27;;;;;;;18.48;10.00;;;26.50;54.00;;;;;;1856498;77;21037;-64
2022/04/26 11:41:01;;;;;;;11.33;7.55;;;26.50;54.10;;;;;;1861974;76;21072;-65
2022/04/26 11:43:36;;;;;;;15.78;9.43;;;26.50;54.40;;;;;;1865247;76;21100;-65
2022/04/26 11:48:59;;;;;;;13.03;9.63;;;26.50;54.50;;;;;;1893041;75;21048;-65
2022/04/26 11:51:26;;;;;;;21.52;12.18;;;26.40;55.30;;;;;;1892683;75;21045;-65
2022/04/26 11:53:56;;;;;;;21.50;12.18;;;26.40;55.50;;;;;;1892976;76;21029;-65
2022/04/26 11:56:27;;;;;;;21.15;10.85;;;26.50;56.10;;;;;;1892912;75;21025;-65
2022/04/26 11:58:57;;;;;;;20.48;9.63;;;26.50;56.00;;;;;;1893000;74;21029;-65
2022/04/26 12:01:27;;;;;;;18.45;7.95;;;26.50;56.00;;;;;;1893006;75;21098;-65
2022/04/26 12:03:57;;;;;;;25.15;9.75;;;26.50;55.80;;;;;;1892950;74;21085;-65
2022/04/26 12:06:40;;;;;;;25.43;11.95;;;26.50;56.20;;;;;;1893012;74;21033;-65
2022/04/26 12:09:16;;;;;;;17.25;8.70;;;26.50;55.90;;;;;;1892911;75;21017;-65
2022/04/26 12:11:45;;;;;;;18.73;10.50;;;26.40;55.70;;;;;;1893095;76;21033;-65
2022/04/26 12:14:16;;;;;;;27.65;13.85;;;26.30;56.40;;;;;;1893071;75;21120;-64
2022/04/26 12:16:47;;;;;;;27.58;13.43;;;26.20;56.50;;;;;;1893027;76;21029;-65
2022/04/26 12:19:17;;;;;;;31.62;14.28;;;26.20;56.40;;;;;;1893008;76;21079;-65
2022/04/26 12:21:58;;;;;;;23.75;13.00;;;26.20;56.00;;;;;;1893064;74;21033;-65
2022/04/26 12:24:30;;;;;;;24.15;12.25;;;26.10;55.90;;;;;;1892957;76;21029;-65
2022/04/26 12:27:05;;;;;;;26.73;13.00;;;26.10;55.60;;;;;;1892786;74;21158;-65
2022/04/26 12:29:40;;;;;;;;;;;26.10;55.60;;;;;;1895812;74;21017;-65
2022/04/26 12:32:15;;;;;;;17.85;11.20;;;26.00;55.20;;;;;;1892984;76;20143;-65
2022/04/26 12:34:52;;;;;;;22.90;10.60;;;26.00;55.30;;;;;;1893127;74;21044;-65
2022/04/26 12:37:23;;;;;;;23.73;10.53;;;26.00;54.70;;;;;;1892905;74;21037;-65
2022/04/26 12:40:01;;;;;;;23.80;9.20;;;25.90;54.10;;;;;;1892870;76;21041;-65
2022/04/26 12:42:34;;;;;;;16.65;8.65;;;25.80;54.20;;;;;;1892797;75;21060;-66
2022/04/26 12:45:21;;;;;;;26.85;8.40;;;25.80;54.30;;;;;;1893011;75;21197;-65
2022/04/26 12:50:54;;;;;;;21.87;9.30;;;25.70;53.50;;;;;;1884014;75;21207;-65
2022/04/26 12:53:35;;;;;;;14.95;7.30;;;25.70;53.80;;;;;;1883604;75;21068;-65
2022/04/26 12:56:09;;;;;;;23.45;8.88;;;25.60;53.40;;;;;;1883100;75;21478;-65
2022/04/26 12:58:46;;;;;;;16.07;8.00;;;25.50;53.30;;;;;;1883611;75;20997;-65
2022/04/26 13:01:17;;;;;;;10.10;7.58;;;25.40;53.20;;;;;;1883621;75;21098;-65
2022/04/26 13:03:47;;;;;;;19.25;8.48;;;25.30;52.90;;;;;;1883626;75;21094;-65
2022/04/26 13:06:18;;;;;;;15.80;8.50;;;25.30;52.60;;;;;;1883623;75;21121;-65
2022/04/26 13:08:51;;;;;;;27.52;7.55;;;25.30;52.10;;;;;;1883597;75;21024;-66
2022/04/26 13:11:20;;;;;;;14.60;8.10;;;25.20;52.50;;;;;;1883652;75;21071;-66
2022/04/26 13:13:51;;;;;;;17.57;7.47;;;25.20;51.80;;;;;;1883687;75;21079;-66
2022/04/26 13:16:20;;;;;;;19.40;9.28;;;25.10;51.90;;;;;;1883712;76;21082;-66
2022/04/26 13:18:50;;;;;;;25.15;8.95;;;25.10;51.90;;;;;;1883614;76;21153;-66
2022/04/26 13:21:19;;;;;;;21.75;8.10;;;25.10;52.30;;;;;;1883568;76;21032;-66
2022/04/26 13:23:48;;;;;;;19.32;9.10;;;25.10;52.50;;;;;;1883616;75;21024;-66
2022/04/26 13:26:18;;;;;;;17.10;8.33;;;25.10;51.40;;;;;;1883506;76;21008;-65
2022/04/26 13:28:47;;;;;;;22.13;10.00;;;25.00;50.10;;;;;;1883682;75;21447;-65
2022/04/26 13:31:16;;;;;;;39.92;11.78;;;24.90;50.50;;;;;;1883661;75;21028;-65
2022/04/26 13:33:46;;;;;;;16.97;9.78;;;24.80;50.50;;;;;;1883528;75;21028;-66
2022/04/26 13:36:15;;;;;;;19.40;9.35;;;24.80;50.90;;;;;;1883534;75;21109;-66
2022/04/26 13:38:45;;;;;;;19.32;9.85;;;24.80;51.00;;;;;;1883635;76;21047;-66
2022/04/26 13:41:14;;;;;;;20.08;10.70;;;24.80;51.30;;;;;;1883618;75;21036;-66
2022/04/26 13:43:44;;;;;;;22.62;10.80;;;24.80;51.30;;;;;;1883798;75;21017;-66
2022/04/26 13:46:13;;;;;;;47.43;13.95;;;24.80;51.70;;;;;;1883524;75;21102;-66
2022/04/26 13:48:42;;;;;;;27.25;12.03;;;24.80;52.40;;;;;;1883628;75;21090;-66
2022/04/26 13:51:12;;;;;;;23.83;10.20;;;24.70;53.30;;;;;;1883544;76;21044;-66
2022/04/26 13:53:41;;;;;;;21.82;11.15;;;24.70;53.30;;;;;;1883531;75;21024;-66
2022/04/26 13:56:11;;;;;;;15.83;10.13;;;24.70;53.60;;;;;;1883502;75;21098;-65
2022/04/26 13:58:40;;;;;;;21.48;10.78;;;24.60;53.90;;;;;;1883533;75;21095;-66
2022/04/26 14:01:10;;;;;;;20.48;10.75;;;24.60;54.20;;;;;;1883523;76;21137;-66
2022/04/26 14:03:39;;;;;;;33.70;12.00;;;24.50;54.50;;;;;;1883655;75;21004;-66
2022/04/26 14:06:10;;;;;;;19.10;10.60;;;24.50;54.80;;;;;;1883478;75;21028;-66
2022/04/26 14:08:40;;;;;;;20.52;10.45;;;24.40;55.00;;;;;;1883762;75;21101;-65
2022/04/26 14:11:10;;;;;;;27.30;12.58;;;24.40;55.10;;;;;;1883670;75;21131;-65
2022/04/26 14:21:47;;;;;;;21.80;11.97;;;24.40;55.20;;;;;;1883694;75;21098;-65
2022/04/26 14:21:47;;;;;;;98.45;17.70;;;24.10;55.60;;;;;;1883540;75;21122;-64
2022/04/26 14:24:17;;;;;;;20.43;11.25;;;24.10;55.80;;;;;;1883501;75;21020;-64
2022/04/26 14:26:46;;;;;;;17.35;10.60;;;24.00;56.20;;;;;;1883487;76;21028;-64
2022/04/26 14:29:16;;;;;;;21.07;11.38;;;24.00;56.50;;;;;;1883453;75;21024;-64
2022/04/26 14:31:46;;;;;;;21.30;10.48;;;24.00;56.90;;;;;;1883526;75;21032;-64
2022/04/26 14:34:15;;;;;;;18.40;10.10;;;23.90;56.30;;;;;;1883633;76;21032;-64
2022/04/26 14:36:45;;;;;;;23.50;10.43;;;23.90;56.50;;;;;;1883667;75;21431;-64
2022/04/26 14:39:15;;;;;;;33.53;9.18;;;23.90;56.70;;;;;;1883598;76;21031;-64
2022/04/26 14:41:44;;;;;;;11.53;5.03;;;23.90;56.20;;;;;;1883488;76;21052;-64
2022/04/26 14:44:14;;;;;;;12.53;6.15;;;23.90;55.30;;;;;;1883535;75;21106;-64
2022/04/26 14:46:43;;;;;;;12.33;6.97;;;23.80;55.40;;;;;;1883530;75;21115;-64
2022/04/26 14:49:13;;;;;;;14.55;7.25;;;23.80;55.30;;;;;;1883471;75;21061;-64
2022/04/26 14:51:42;;;;;;;13.53;6.90;;;23.80;55.60;;;;;;1883539;75;21004;-64
2022/04/26 14:54:11;;;;;;;15.85;7.15;;;23.70;55.60;;;;;;1883550;75;21106;-64
2022/04/26 14:56:41;;;;;;;14.10;7.53;;;23.60;55.90;;;;;;1883481;75;21072;-64
2022/04/26 14:59:13;;;;;;;29.35;8.13;;;23.60;56.30;;;;;;1883483;75;21145;-64
2022/04/26 15:01:46;;;;;;;9.50;6.40;;;23.50;56.30;;;;;;1883624;75;21090;-64
2022/04/26 15:04:13;;;;;;;10.10;5.78;;;23.50;56.30;;;;;;1883813;74;21078;-64
2022/04/26 15:06:42;;;;;;;13.48;7.20;;;23.40;56.50;;;;;;1883583;75;21107;-64
2022/04/26 15:17:33;;;;;;;13.20;7.05;;;23.10;57.30;;;;;;1883625;75;21036;-64
2022/04/26 15:20:03;;;;;;;7.70;5.75;;;23.10;57.40;;;;;;1883543;75;21505;-64
2022/04/26 15:22:32;;;;;;;11.97;7.37;;;23.00;57.60;;;;;;1883587;76;21098;-65
2022/04/26 15:25:01;;;;;;;33.58;9.10;;;23.00;57.80;;;;;;1883541;76;21036;-64
2022/04/26 15:27:31;;;;;;;7.97;5.65;;;22.90;58.00;;;;;;1883484;75;21076;-64
2022/04/26 15:30:00;;;;;;;10.80;6.58;;;22.80;58.10;;;;;;1883503;75;21051;-64
2022/04/26 15:32:30;;;;;;;20.85;8.23;;;22.80;58.20;;;;;;1883599;76;21032;-64
2022/04/26 15:34:59;;;;;;;21.35;12.98;;;22.70;58.40;;;;;;1883575;75;21008;-64
2022/04/26 15:37:29;;;;;;;41.80;16.32;;;22.60;58.70;;;;;;1883642;75;21106;-64
2022/04/26 15:39:58;;;;;;;30.70;14.35;;;22.50;58.90;;;;;;1883646;75;21008;-64
2022/04/26 15:42:29;;;;;;;26.95;15.03;;;22.40;59.20;;;;;;1883581;75;21040;-64
2022/04/26 15:44:59;;;;;;;22.90;13.75;;;22.30;59.40;;;;;;1883607;76;21089;-64
2022/04/26 15:47:29;;;;;;;26.70;13.20;;;22.10;59.60;;;;;;1883754;75;21428;-64
2022/04/26 15:49:59;;;;;;;19.20;11.93;;;22.10;59.80;;;;;;1881898;75;21052;-64
2022/04/26 15:52:29;;;;;;;24.57;12.55;;;22.00;60.10;;;;;;1880214;75;21028;-64
2022/04/26 15:54:58;;;;;;;21.48;12.13;;;21.90;60.10;;;;;;1880219;75;21036;-64
2022/04/26 15:57:27;;;;;;;18.80;12.37;;;21.80;60.30;;;;;;1880231;75;21102;-64
2022/04/26 15:59:57;;;;;;;18.75;12.73;;;21.70;60.40;;;;;;1880301;75;21090;-64
2022/04/26 16:02:27;;;;;;;18.65;13.30;;;21.70;60.70;;;;;;1880276;75;21020;-65
2022/04/26 16:04:56;;;;;;;26.33;18.32;;;21.60;61.00;;;;;;1880215;75;21094;-64
2022/04/26 16:07:26;;;;;;;38.40;24.77;;;21.50;61.20;;;;;;1880317;76;21028;-64
2022/04/26 16:21:06;;;;;;;64.30;41.98;;;21.00;62.90;;;;;;1880212;75;21051;-65
2022/04/26 16:23:35;;;;;;;66.95;42.08;;;20.90;63.00;;;;;;1880173;75;21451;-65
2022/04/26 16:26:07;;;;;;;77.27;44.83;;;20.80;63.10;;;;;;1880146;75;21004;-65
2022/04/26 16:28:42;;;;;;;62.35;43.60;;;20.70;63.30;;;;;;1880328;75;21028;-65
2022/04/26 16:31:08;;;;;;;68.12;41.40;;;20.70;63.40;;;;;;1879533;76;21040;-65
2022/04/26 16:33:37;;;;;;;65.28;41.83;;;20.60;63.50;;;;;;1880200;76;21108;-65
2022/04/26 16:36:07;;;;;;;64.47;41.35;;;20.50;63.50;;;;;;1880238;75;21427;-65
2022/04/26 16:38:36;;;;;;;74.05;41.35;;;20.50;63.60;;;;;;1880180;75;21016;-65
2022/04/26 16:41:07;;;;;;;64.87;39.92;;;20.40;63.80;;;;;;1880181;76;21090;-65
2022/04/26 16:43:36;;;;;;;65.70;42.15;;;20.40;63.80;;;;;;1880388;76;21044;-65
2022/04/26 16:46:06;;;;;;;71.42;41.92;;;20.30;63.80;;;;;;1880150;76;21098;-65
2022/04/26 16:48:35;;;;;;;63.63;39.85;;;20.30;63.80;;;;;;1880113;75;21176;-65
2022/04/26 16:51:05;;;;;;;67.53;39.10;;;20.20;64.40;;;;;;1880157;75;21060;-65
2022/04/26 16:53:35;;;;;;;60.83;40.03;;;20.20;64.00;;;;;;1880222;76;21086;-65
2022/04/26 16:56:05;;;;;;;65.92;38.02;;;20.10;64.00;;;;;;1880192;76;21048;-65
2022/04/26 16:58:35;;;;;;;78.47;41.10;;;20.00;64.00;;;;;;1880171;76;21086;-65
2022/04/26 17:01:05;;;;;;;73.33;42.62;;;20.00;64.30;;;;;;1880223;75;21024;-65
2022/04/26 17:03:34;;;;;;;76.50;41.60;;;20.00;64.40;;;;;;1880238;75;21032;-65
2022/04/26 17:06:04;;;;;;;68.22;38.42;;;19.90;64.50;;;;;;1880137;76;21552;-65
2022/04/26 17:08:33;;;;;;;71.57;38.25;;;19.90;64.60;;;;;;1880190;76;21079;-65
2022/04/26 17:14:16;;;;;;;59.45;32.08;;;19.90;64.60;;;;;;1888294;76;21055;-66
2022/04/26 17:16:48;;;;;;;44.60;29.63;;;19.80;64.60;;;;;;1888199;75;21114;-66
2022/04/26 17:19:18;;;;;;;47.38;29.12;;;19.80;64.60;;;;;;1888152;76;21093;-66
2022/04/26 17:21:47;;;;;;;40.73;25.43;;;19.70;64.60;;;;;;1888146;75;21031;-66
2022/04/26 17:27:04;;;;;;;54.40;28.65;;;19.70;64.70;;;;;;1888151;75;21133;-66
2022/04/26 17:29:34;;;;;;;52.05;28.35;;;19.70;64.80;;;;;;1888133;76;21109;-66
2022/04/26 17:32:03;;;;;;;51.88;26.33;;;19.60;64.80;;;;;;1888098;76;21467;-66